createdAt,value
2017-11-26T00:00:35.093Z,2.40
2017-11-26T00:03:03.197Z,2.30
2017-11-26T00:05:31.950Z,2.50
2017-11-26T00:08:00.054Z,2.40
2017-11-26T00:10:28.850Z,2.50
2017-11-26T00:12:57.688Z,2.50
2017-11-26T00:15:26.497Z,2.50
2017-11-26T00:17:54.654Z,2.50
2017-11-26T00:20:22.797Z,2.50
2017-11-26T00:22:50.916Z,2.50
2017-11-26T00:25:18.942Z,2.60
2017-11-26T00:27:46.957Z,2.60
2017-11-26T00:30:15.013Z,2.60
2017-11-26T00:32:43.130Z,2.60
2017-11-26T00:35:11.155Z,2.70
2017-11-26T00:37:39.204Z,2.60
2017-11-26T00:40:07.388Z,2.60
2017-11-26T00:42:35.453Z,2.60
2017-11-26T00:45:03.691Z,2.50
2017-11-26T00:47:31.949Z,2.30
2017-11-26T00:50:00.879Z,2.30
2017-11-26T00:52:29.043Z,2.20
2017-11-26T00:54:58.225Z,2.10
2017-11-26T00:57:26.644Z,2.10
2017-11-26T00:59:54.842Z,2.10
2017-11-26T01:02:23.720Z,2.10
2017-11-26T01:04:51.785Z,2.10
2017-11-26T01:07:20.589Z,2.20
2017-11-26T01:09:48.773Z,2.20
2017-11-26T01:12:17.454Z,2.20
2017-11-26T01:14:45.665Z,2.20
2017-11-26T01:17:18.054Z,2.20
2017-11-26T01:19:46.263Z,2.30
2017-11-26T01:22:14.336Z,2.30
2017-11-26T01:24:42.587Z,2.30
2017-11-26T01:27:15.437Z,2.40
2017-11-26T01:29:44.526Z,2.50
2017-11-26T01:32:12.598Z,2.40
2017-11-26T01:34:40.639Z,2.50
2017-11-26T01:37:12.668Z,2.50
2017-11-26T01:39:40.809Z,2.60
2017-11-26T01:42:09.114Z,2.60
2017-11-26T01:44:37.255Z,2.50
2017-11-26T01:47:05.508Z,2.50
2017-11-26T01:49:33.671Z,2.40
2017-11-26T01:52:01.868Z,2.50
2017-11-26T01:54:30.017Z,2.50
2017-11-26T01:56:58.990Z,2.50
2017-11-26T01:59:27.139Z,2.50
2017-11-26T02:01:55.241Z,2.50
2017-11-26T02:04:23.324Z,2.50
2017-11-26T02:06:53.522Z,2.50
2017-11-26T02:09:21.657Z,2.50
2017-11-26T02:11:49.799Z,2.50
2017-11-26T02:14:18.830Z,2.30
2017-11-26T02:16:47.082Z,2.30
2017-11-26T02:19:15.169Z,2.20
2017-11-26T02:21:43.346Z,2.10
2017-11-26T02:24:11.461Z,2.00
2017-11-26T02:26:39.747Z,1.90
2017-11-26T02:29:08.669Z,1.80
2017-11-26T02:31:48.430Z,1.80
2017-11-26T02:34:28.287Z,1.70
2017-11-26T02:36:56.540Z,1.70
2017-11-26T02:39:24.721Z,1.70
2017-11-26T02:41:53.014Z,1.70
2017-11-26T02:44:21.223Z,1.70
2017-11-26T02:46:49.605Z,1.70
2017-11-26T02:49:17.815Z,1.80
2017-11-26T02:51:46.226Z,1.90
2017-11-26T02:54:14.397Z,2.00
2017-11-26T02:56:42.577Z,2.00
2017-11-26T02:59:10.704Z,2.00
2017-11-26T03:01:38.907Z,2.00
2017-11-26T03:04:06.949Z,2.10
2017-11-26T03:06:35.081Z,2.10
2017-11-26T03:09:03.187Z,2.10
2017-11-26T03:11:31.327Z,2.10
2017-11-26T03:13:59.370Z,2.10
2017-11-26T03:16:27.607Z,2.10
2017-11-26T03:18:55.682Z,2.10
2017-11-26T03:21:24.012Z,2.20
2017-11-26T03:23:52.098Z,2.20
2017-11-26T03:26:20.277Z,2.10
2017-11-26T03:28:48.391Z,2.10
2017-11-26T03:31:16.486Z,2.10
2017-11-26T03:33:44.475Z,2.00
2017-11-26T03:36:12.654Z,2.10
2017-11-26T03:38:40.867Z,2.10
2017-11-26T03:41:08.995Z,2.10
2017-11-26T03:43:37.770Z,2.20
2017-11-26T03:46:05.909Z,2.20
2017-11-26T03:48:34.012Z,2.30
2017-11-26T03:51:02.071Z,2.30
2017-11-26T03:53:30.101Z,2.30
2017-11-26T03:55:58.222Z,2.30
2017-11-26T03:58:26.526Z,2.40
2017-11-26T04:00:54.662Z,2.40
2017-11-26T04:03:22.789Z,2.40
2017-11-26T04:05:50.826Z,2.40
2017-11-26T04:08:18.839Z,2.40
2017-11-26T04:10:46.826Z,2.40
2017-11-26T04:13:14.855Z,2.40
2017-11-26T04:15:43.721Z,2.30
2017-11-26T04:18:11.809Z,2.30
2017-11-26T04:20:39.860Z,2.20
2017-11-26T04:23:07.881Z,2.20
2017-11-26T04:25:35.973Z,2.20
2017-11-26T04:28:03.972Z,2.20
2017-11-26T04:30:32.006Z,2.20
2017-11-26T04:33:00.075Z,2.30
2017-11-26T04:35:28.075Z,2.30
2017-11-26T04:38:04.569Z,2.40
2017-11-26T04:40:32.644Z,2.40
2017-11-26T04:43:01.460Z,2.50
2017-11-26T04:45:29.451Z,2.50
2017-11-26T04:47:57.457Z,2.50
2017-11-26T04:50:25.436Z,2.50
2017-11-26T04:52:53.471Z,2.60
2017-11-26T04:55:21.479Z,2.60
2017-11-26T04:57:49.531Z,2.60
2017-11-26T05:00:17.553Z,2.60
2017-11-26T05:02:45.651Z,2.60
2017-11-26T05:05:13.648Z,2.60
2017-11-26T05:07:41.804Z,2.60
2017-11-26T05:10:09.750Z,2.60
2017-11-26T05:12:38.522Z,2.70
2017-11-26T05:15:06.507Z,2.60
2017-11-26T05:17:34.526Z,2.60
2017-11-26T05:20:02.488Z,2.50
2017-11-26T05:22:30.525Z,2.50
2017-11-26T05:24:58.520Z,2.50
2017-11-26T05:27:26.584Z,2.40
2017-11-26T05:29:54.540Z,2.40
2017-11-26T05:32:22.629Z,2.40
2017-11-26T05:34:50.714Z,2.40
2017-11-26T05:37:22.759Z,2.40
2017-11-26T05:39:50.730Z,2.50
2017-11-26T05:42:18.808Z,2.50
2017-11-26T05:44:47.173Z,2.50
2017-11-26T05:47:15.217Z,2.50
2017-11-26T05:49:43.202Z,2.60
2017-11-26T05:52:11.249Z,2.60
2017-11-26T05:54:39.217Z,2.60
2017-11-26T05:57:07.228Z,2.50
2017-11-26T05:59:35.231Z,2.40
2017-11-26T06:02:03.303Z,2.30
2017-11-26T06:04:31.351Z,2.20
2017-11-26T06:06:59.621Z,2.20
2017-11-26T06:09:27.608Z,2.20
2017-11-26T06:11:55.671Z,2.20
2017-11-26T06:14:23.674Z,2.10
2017-11-26T06:16:51.743Z,2.20
2017-11-26T06:19:19.709Z,2.20
2017-11-26T06:21:47.780Z,2.30
2017-11-26T06:24:15.825Z,2.30
2017-11-26T06:26:43.952Z,2.30
2017-11-26T06:29:11.984Z,2.40
2017-11-26T06:31:40.027Z,2.40
2017-11-26T06:34:07.980Z,2.40
2017-11-26T06:36:36.087Z,2.40
2017-11-26T06:39:04.156Z,2.50
2017-11-26T06:41:32.279Z,2.50
2017-11-26T06:44:00.365Z,2.50
2017-11-26T06:46:28.485Z,2.50
2017-11-26T06:48:56.469Z,2.60
2017-11-26T06:51:24.520Z,2.60
2017-11-26T06:53:52.472Z,2.60
2017-11-26T06:56:20.502Z,2.60
2017-11-26T06:58:48.456Z,2.70
2017-11-26T07:01:16.459Z,2.70
2017-11-26T07:03:44.419Z,2.70
2017-11-26T07:06:16.340Z,2.70
2017-11-26T07:08:44.258Z,2.70
2017-11-26T07:11:12.261Z,2.60
2017-11-26T07:13:40.414Z,2.60
2017-11-26T07:16:08.393Z,2.70
2017-11-26T07:18:36.492Z,2.70
2017-11-26T07:21:06.135Z,2.70
2017-11-26T07:23:34.145Z,2.70
2017-11-26T07:26:02.089Z,2.80
2017-11-26T07:28:30.074Z,2.80
2017-11-26T07:30:58.044Z,2.80
2017-11-26T07:33:26.091Z,2.80
2017-11-26T07:35:55.178Z,2.80
2017-11-26T07:38:23.125Z,2.80
2017-11-26T07:40:51.897Z,2.90
2017-11-26T07:43:20.597Z,2.90
2017-11-26T07:45:49.462Z,2.90
2017-11-26T07:48:17.504Z,2.90
2017-11-26T07:50:45.444Z,2.90
2017-11-26T07:53:13.533Z,2.90
2017-11-26T07:55:47.701Z,2.90
2017-11-26T07:58:22.424Z,2.90
2017-11-26T08:00:58.529Z,2.90
2017-11-26T08:03:33.026Z,2.80
2017-11-26T08:06:09.487Z,2.90
2017-11-26T08:08:37.687Z,2.90
2017-11-26T08:11:05.678Z,2.90
2017-11-26T08:13:37.319Z,2.90
2017-11-26T08:16:10.712Z,3.00
2017-11-26T08:18:38.811Z,3.10
2017-11-26T08:21:06.833Z,3.10
2017-11-26T08:23:35.761Z,3.10
2017-11-26T08:26:03.736Z,3.10
2017-11-26T08:28:31.717Z,3.20
2017-11-26T08:31:06.395Z,3.30
2017-11-26T08:33:40.366Z,3.40
2017-11-26T08:36:12.294Z,3.60
2017-11-26T08:38:41.756Z,3.60
2017-11-26T08:41:15.859Z,3.60
2017-11-26T08:43:49.116Z,3.60
2017-11-26T08:46:20.848Z,3.50
2017-11-26T08:48:49.035Z,3.50
2017-11-26T08:51:17.090Z,3.50
2017-11-26T08:53:45.166Z,3.50
2017-11-26T08:56:13.223Z,3.50
2017-11-26T08:58:41.350Z,3.50
2017-11-26T09:01:09.348Z,3.50
2017-11-26T09:03:37.468Z,3.60
2017-11-26T09:06:05.514Z,3.60
2017-11-26T09:08:37.794Z,3.70
2017-11-26T09:11:06.555Z,3.80
2017-11-26T09:13:34.619Z,3.80
2017-11-26T09:16:02.736Z,3.90
2017-11-26T09:18:30.767Z,3.80
2017-11-26T09:20:58.752Z,3.90
2017-11-26T09:23:29.975Z,3.80
2017-11-26T09:26:03.916Z,3.80
2017-11-26T09:28:32.942Z,3.90
2017-11-26T09:31:00.890Z,3.90
2017-11-26T09:33:29.747Z,4.00
2017-11-26T09:35:57.732Z,4.00
2017-11-26T09:38:25.738Z,3.90
2017-11-26T09:40:54.572Z,3.90
2017-11-26T09:43:22.604Z,3.90
2017-11-26T09:45:50.602Z,4.00
2017-11-26T09:48:25.649Z,4.00
2017-11-26T09:50:53.945Z,4.00
2017-11-26T09:53:22.015Z,4.00
2017-11-26T09:55:50.538Z,4.00
2017-11-26T09:58:18.686Z,4.00
2017-11-26T10:00:46.703Z,4.10
2017-11-26T10:03:14.805Z,4.20
2017-11-26T10:05:46.599Z,4.20
2017-11-26T10:08:15.470Z,4.30
2017-11-26T10:10:43.473Z,4.30
2017-11-26T10:13:12.450Z,4.30
2017-11-26T10:15:40.424Z,4.30
2017-11-26T10:18:08.440Z,4.30
2017-11-26T10:20:37.115Z,4.40
2017-11-26T10:23:05.216Z,4.50
2017-11-26T10:25:33.202Z,4.40
2017-11-26T10:28:02.461Z,4.40
2017-11-26T10:30:30.629Z,4.40
2017-11-26T10:32:59.911Z,4.40
2017-11-26T10:35:28.500Z,4.40
2017-11-26T10:37:58.449Z,4.40
2017-11-26T10:40:26.501Z,4.40
2017-11-26T10:42:54.563Z,4.30
2017-11-26T10:45:22.617Z,4.40
2017-11-26T10:47:50.876Z,4.30
2017-11-26T10:50:23.211Z,4.30
2017-11-26T10:52:51.320Z,4.30
2017-11-26T10:55:19.360Z,4.40
2017-11-26T10:57:47.665Z,4.40
2017-11-26T11:00:15.753Z,4.40
2017-11-26T11:02:43.814Z,4.50
2017-11-26T11:05:11.890Z,4.50
2017-11-26T11:07:43.025Z,4.60
2017-11-26T11:10:12.212Z,4.80
2017-11-26T11:12:40.446Z,4.80
2017-11-26T11:15:08.490Z,4.90
2017-11-26T11:17:36.592Z,4.80
2017-11-26T11:20:05.560Z,4.90
2017-11-26T11:22:33.604Z,4.90
2017-11-26T11:25:01.685Z,5.10
2017-11-26T11:27:29.758Z,5.10
2017-11-26T11:29:57.699Z,5.10
2017-11-26T11:32:26.101Z,5.10
2017-11-26T11:34:54.115Z,5.00
2017-11-26T11:37:23.149Z,5.10
2017-11-26T11:39:51.119Z,5.00
2017-11-26T11:42:19.141Z,4.90
2017-11-26T11:44:47.070Z,4.80
2017-11-26T11:47:14.974Z,4.70
2017-11-26T11:49:42.952Z,4.70
2017-11-26T11:52:11.119Z,4.70
2017-11-26T11:54:39.213Z,4.70
2017-11-26T11:57:07.238Z,4.70
2017-11-26T11:59:35.372Z,4.70
2017-11-26T12:02:03.443Z,4.70
2017-11-26T12:04:31.560Z,4.70
2017-11-26T12:07:00.908Z,4.70
2017-11-26T12:09:28.999Z,4.70
2017-11-26T12:11:57.014Z,4.70
2017-11-26T12:14:25.177Z,4.70
2017-11-26T12:16:53.202Z,4.70
2017-11-26T12:19:21.295Z,4.80
2017-11-26T12:21:49.351Z,4.80
2017-11-26T12:24:17.471Z,4.70
2017-11-26T12:26:45.542Z,4.80
2017-11-26T12:29:13.614Z,4.80
2017-11-26T12:31:41.633Z,4.80
2017-11-26T12:34:09.666Z,4.80
2017-11-26T12:36:40.795Z,4.80
2017-11-26T12:39:08.863Z,4.90
2017-11-26T12:41:36.824Z,4.90
2017-11-26T12:44:04.855Z,5.00
2017-11-26T12:46:32.838Z,5.00
2017-11-26T12:49:00.993Z,5.00
2017-11-26T12:51:29.807Z,5.00
2017-11-26T12:53:57.983Z,4.90
2017-11-26T12:56:27.252Z,5.00
2017-11-26T12:58:55.315Z,5.10
2017-11-26T13:01:23.590Z,5.20
2017-11-26T13:03:51.720Z,5.30
2017-11-26T13:06:19.793Z,5.20
2017-11-26T13:08:47.852Z,5.30
2017-11-26T13:11:16.725Z,5.40
2017-11-26T13:13:44.871Z,5.50
2017-11-26T13:16:12.922Z,5.60
2017-11-26T13:18:41.199Z,5.70
2017-11-26T13:21:09.350Z,5.70
2017-11-26T13:23:37.503Z,5.60
2017-11-26T13:26:05.798Z,5.60
2017-11-26T13:28:33.822Z,5.60
2017-11-26T13:31:02.801Z,5.40
2017-11-26T13:33:30.810Z,5.40
2017-11-26T13:35:58.907Z,5.30
2017-11-26T13:38:28.418Z,5.30
2017-11-26T13:40:56.491Z,5.30
2017-11-26T13:43:24.579Z,5.20
2017-11-26T13:45:52.615Z,5.20
2017-11-26T13:48:20.679Z,5.10
2017-11-26T13:50:48.687Z,5.10
2017-11-26T13:53:16.761Z,5.00
2017-11-26T13:55:44.812Z,4.90
2017-11-26T13:58:13.630Z,4.70
2017-11-26T14:00:41.620Z,4.70
2017-11-26T14:03:09.682Z,4.70
2017-11-26T14:05:37.715Z,4.70
2017-11-26T14:08:06.484Z,4.70
2017-11-26T14:10:34.531Z,4.70
2017-11-26T14:13:02.651Z,4.70
2017-11-26T14:15:31.484Z,4.70
2017-11-26T14:17:59.536Z,4.70
2017-11-26T14:20:27.600Z,4.70
2017-11-26T14:22:57.680Z,4.60
2017-11-26T14:25:27.424Z,4.60
2017-11-26T14:27:55.672Z,4.60
2017-11-26T14:30:23.727Z,4.60
2017-11-26T14:32:51.702Z,4.50
2017-11-26T14:35:19.787Z,4.50
2017-11-26T14:37:47.782Z,4.60
2017-11-26T14:40:16.621Z,4.50
2017-11-26T14:42:44.613Z,4.50
2017-11-26T14:45:12.697Z,4.50
2017-11-26T14:47:40.768Z,4.50
2017-11-26T14:50:08.909Z,4.50
2017-11-26T14:52:36.983Z,4.50
2017-11-26T14:55:05.088Z,4.50
2017-11-26T14:57:33.305Z,4.50
2017-11-26T15:00:01.416Z,4.50
2017-11-26T15:02:29.536Z,4.50
2017-11-26T15:04:57.714Z,4.50
2017-11-26T15:07:25.849Z,4.40
2017-11-26T15:09:53.960Z,4.40
2017-11-26T15:12:21.985Z,4.40
2017-11-26T15:14:50.101Z,4.40
2017-11-26T15:17:18.190Z,4.40
2017-11-26T15:19:46.240Z,4.30
2017-11-26T15:22:14.284Z,4.30
2017-11-26T15:24:42.374Z,4.20
2017-11-26T15:27:10.435Z,4.20
2017-11-26T15:29:38.569Z,4.30
2017-11-26T15:32:06.575Z,4.30
2017-11-26T15:34:34.782Z,4.30
2017-11-26T15:37:02.923Z,4.30
2017-11-26T15:39:31.036Z,4.20
2017-11-26T15:41:59.064Z,4.30
2017-11-26T15:44:27.114Z,4.30
2017-11-26T15:46:56.217Z,4.30
2017-11-26T15:49:24.642Z,4.20
2017-11-26T15:51:53.525Z,4.20
2017-11-26T15:54:21.661Z,4.20
2017-11-26T15:56:49.724Z,4.20
2017-11-26T15:59:17.960Z,4.20
2017-11-26T16:01:47.114Z,4.20
2017-11-26T16:04:16.292Z,4.20
2017-11-26T16:06:45.256Z,4.10
2017-11-26T16:09:14.631Z,4.10
2017-11-26T16:11:43.408Z,4.10
2017-11-26T16:14:12.682Z,4.10
2017-11-26T16:16:41.427Z,4.10
2017-11-26T16:19:10.279Z,4.10
2017-11-26T16:21:39.224Z,4.10
2017-11-26T16:24:10.784Z,4.00
2017-11-26T16:26:40.358Z,4.00
2017-11-26T16:29:08.577Z,4.00
2017-11-26T16:31:36.673Z,4.10
2017-11-26T16:34:04.840Z,4.10
2017-11-26T16:36:33.112Z,4.00
2017-11-26T16:39:01.193Z,4.00
2017-11-26T16:41:29.447Z,4.10
2017-11-26T16:43:57.547Z,4.10
2017-11-26T16:46:25.604Z,4.10
2017-11-26T16:48:54.465Z,4.10
2017-11-26T16:51:22.604Z,4.10
2017-11-26T16:53:50.742Z,4.10
2017-11-26T16:56:18.879Z,4.10
2017-11-26T16:58:47.227Z,4.10
2017-11-26T17:01:16.176Z,4.10
2017-11-26T17:03:44.219Z,4.10
2017-11-26T17:06:12.439Z,4.00
2017-11-26T17:08:40.584Z,4.10
2017-11-26T17:11:08.698Z,4.00
2017-11-26T17:13:36.750Z,4.00
2017-11-26T17:16:04.887Z,4.00
2017-11-26T17:18:33.036Z,3.90
2017-11-26T17:21:01.180Z,3.90
2017-11-26T17:23:29.230Z,3.90
2017-11-26T17:26:01.297Z,3.80
2017-11-26T17:28:30.228Z,3.70
2017-11-26T17:30:58.682Z,3.80
2017-11-26T17:33:26.766Z,3.70
2017-11-26T17:35:54.852Z,3.80
2017-11-26T17:38:25.343Z,3.80
2017-11-26T17:40:53.577Z,3.70
2017-11-26T17:43:22.428Z,3.80
2017-11-26T17:45:55.275Z,3.80
2017-11-26T17:48:23.479Z,3.80
2017-11-26T17:50:51.616Z,3.90
2017-11-26T17:53:19.772Z,3.90
2017-11-26T17:55:48.036Z,3.90
2017-11-26T17:58:16.810Z,3.90
2017-11-26T18:00:45.052Z,3.90
2017-11-26T18:03:13.169Z,4.00
2017-11-26T18:05:41.243Z,3.90
2017-11-26T18:08:09.515Z,3.90
2017-11-26T18:10:37.755Z,3.90
2017-11-26T18:13:06.758Z,3.90
2017-11-26T18:15:34.868Z,3.90
2017-11-26T18:18:02.949Z,4.00
2017-11-26T18:20:31.000Z,4.00
2017-11-26T18:22:59.288Z,4.00
2017-11-26T18:25:27.438Z,4.00
2017-11-26T18:27:55.465Z,4.00
2017-11-26T18:30:23.702Z,4.00
2017-11-26T18:32:52.694Z,3.90
2017-11-26T18:35:20.854Z,3.90
2017-11-26T18:37:49.198Z,3.90
2017-11-26T18:40:17.268Z,3.90
2017-11-26T18:42:45.333Z,3.90
2017-11-26T18:45:13.406Z,3.90
2017-11-26T18:47:41.432Z,3.90
2017-11-26T18:50:09.600Z,3.90
2017-11-26T18:52:37.767Z,3.90
2017-11-26T18:55:05.837Z,3.90
2017-11-26T18:57:34.855Z,3.90
2017-11-26T19:00:03.087Z,3.90
2017-11-26T19:02:32.122Z,3.80
2017-11-26T19:05:00.221Z,3.80
2017-11-26T19:07:28.396Z,3.80
2017-11-26T19:09:56.544Z,3.90
2017-11-26T19:12:24.533Z,3.90
2017-11-26T19:14:52.594Z,3.90
2017-11-26T19:17:20.747Z,3.80
2017-11-26T19:19:48.819Z,3.80
2017-11-26T19:22:16.875Z,3.80
2017-11-26T19:24:45.166Z,3.80
2017-11-26T19:27:13.242Z,3.70
2017-11-26T19:29:42.360Z,3.80
2017-11-26T19:32:11.326Z,3.80
2017-11-26T19:34:39.664Z,3.80
2017-11-26T19:37:08.122Z,3.70
2017-11-26T19:39:36.471Z,3.70
2017-11-26T19:42:05.673Z,3.70
2017-11-26T19:44:34.048Z,3.70
2017-11-26T19:47:02.095Z,3.70
2017-11-26T19:49:30.418Z,3.70
2017-11-26T19:51:59.617Z,3.70
2017-11-26T19:54:27.664Z,3.60
2017-11-26T19:56:55.972Z,3.60
2017-11-26T19:59:25.116Z,3.60
2017-11-26T20:01:53.477Z,3.60
2017-11-26T20:04:22.472Z,3.70
2017-11-26T20:06:50.829Z,3.60
2017-11-26T20:09:19.917Z,3.60
2017-11-26T20:11:49.985Z,3.60
2017-11-26T20:14:18.705Z,3.60
2017-11-26T20:16:47.219Z,3.50
2017-11-26T20:19:16.353Z,3.30
2017-11-26T20:21:44.840Z,3.30
2017-11-26T20:24:13.253Z,3.20
2017-11-26T20:26:41.770Z,3.10
2017-11-26T20:29:11.053Z,3.00
2017-11-26T20:31:39.462Z,3.00
2017-11-26T20:34:07.745Z,3.00
2017-11-26T20:36:36.301Z,3.00
2017-11-26T20:39:05.314Z,3.10
2017-11-26T20:41:35.817Z,3.10
2017-11-26T20:44:04.013Z,3.20
2017-11-26T20:46:32.631Z,3.20
2017-11-26T20:49:01.295Z,3.20
2017-11-26T20:51:31.489Z,3.30
2017-11-26T20:53:59.706Z,3.30
2017-11-26T20:56:28.871Z,3.30
2017-11-26T20:59:00.201Z,3.30
2017-11-26T21:01:29.689Z,3.30
2017-11-26T21:04:01.018Z,3.40
2017-11-26T21:06:31.224Z,3.30
2017-11-26T21:09:01.216Z,3.40
2017-11-26T21:11:31.295Z,3.40
2017-11-26T21:14:01.343Z,3.30
2017-11-26T21:16:30.375Z,3.40
2017-11-26T21:18:58.727Z,3.40
2017-11-26T21:21:27.789Z,3.40
2017-11-26T21:23:56.145Z,3.40
2017-11-26T21:26:26.627Z,3.40
2017-11-26T21:28:54.917Z,3.40
2017-11-26T21:31:23.105Z,3.40
2017-11-26T21:33:51.280Z,3.40
2017-11-26T21:36:19.357Z,3.50
2017-11-26T21:38:47.712Z,3.50
2017-11-26T21:41:16.664Z,3.50
2017-11-26T21:43:45.214Z,3.50
2017-11-26T21:46:13.540Z,3.50
2017-11-26T21:48:41.764Z,3.50
2017-11-26T21:51:10.209Z,3.50
2017-11-26T21:53:39.491Z,3.40
2017-11-26T21:56:08.116Z,3.50
2017-11-26T21:58:36.505Z,3.40
2017-11-26T22:01:05.089Z,3.40
2017-11-26T22:03:33.413Z,3.40
2017-11-26T22:06:01.750Z,3.50
2017-11-26T22:08:30.187Z,3.50
2017-11-26T22:10:58.591Z,3.50
2017-11-26T22:13:27.236Z,3.40
2017-11-26T22:15:57.656Z,3.30
2017-11-26T22:18:26.581Z,3.30
2017-11-26T22:20:54.873Z,3.20
2017-11-26T22:23:23.119Z,3.20
2017-11-26T22:25:51.706Z,3.10
2017-11-26T22:28:20.216Z,3.00
2017-11-26T22:30:51.969Z,2.80
2017-11-26T22:33:20.341Z,2.80
2017-11-26T22:35:49.353Z,2.70
2017-11-26T22:38:19.005Z,2.70
2017-11-26T22:40:47.949Z,2.70
2017-11-26T22:43:17.134Z,2.70
2017-11-26T22:45:45.426Z,2.70
2017-11-26T22:48:13.785Z,2.70
2017-11-26T22:50:42.183Z,2.70
2017-11-26T22:53:11.295Z,2.50
2017-11-26T22:55:39.472Z,2.50
2017-11-26T22:58:08.620Z,2.30
2017-11-26T23:00:37.123Z,2.30
2017-11-26T23:03:05.392Z,2.20
2017-11-26T23:05:33.650Z,2.20
2017-11-26T23:08:02.170Z,2.10
2017-11-26T23:10:32.221Z,1.90
2017-11-26T23:13:00.597Z,1.90
2017-11-26T23:15:28.962Z,1.90
2017-11-26T23:17:58.466Z,1.90
2017-11-26T23:20:26.845Z,1.90
2017-11-26T23:22:55.939Z,2.00
2017-11-26T23:25:25.060Z,1.90
2017-11-26T23:27:53.384Z,1.90
2017-11-26T23:30:21.770Z,1.90
2017-11-26T23:32:50.118Z,2.00
2017-11-26T23:35:18.363Z,2.10
2017-11-26T23:37:46.738Z,2.20
2017-11-26T23:40:14.988Z,2.30
2017-11-26T23:42:43.395Z,2.50
2017-11-26T23:45:11.531Z,2.60
2017-11-26T23:47:39.961Z,2.70
2017-11-26T23:50:08.213Z,2.80
2017-11-26T23:52:36.585Z,2.90
2017-11-26T23:55:04.965Z,3.00
2017-11-26T23:57:33.260Z,3.00
